Airfield :
LOGIN :

Register | Disclaimer

   EN    FR    IT 

 










Legend :    VFR   Marginal VFR   IFR   Intensive IFR   Very Intensive IFR
Visi :
Ceiling :
>= 8 km
>= 3000ft
5 to 8 km
1000 to 3000 ft
1500m to 5 km
500 to 1000 ft
800 to 1500m
200 to 500 ft
< 800m
< 200 ft
Symbols :   Thunderstorms  Fog  Heavy snow  Heavy precipitations  Wind > 20 kt
SIGMETs :     Misc.  Thunderstorms  Icing  Turbulence  Mountain Waves  Volcanic Ashes






- Airport Elevation : 1460 ft


LSMA - Alpnach

CURRENT METAR :
  • 180450Z AUTO VRB02KT 9999NDV NCD 14/12 Q1017 RMK

EXPIRED METARs :
  • 180420Z AUTO 19003KT 9999NDV NCD 13/12 Q1016 RMK
  • 180350Z AUTO 00000KT 9999NDV NCD 13/12 Q1017 RMK
  • 180320Z AUTO VRB02KT 9999NDV NCD 13/12 Q1017 RMK
  • 180250Z AUTO VRB02KT 9999NDV NCD 13/12 Q1016 RMK
  • 180220Z AUTO VRB02KT 9999NDV NCD 13/12 Q1016 RMK
  • 180150Z AUTO VRB02KT 9999NDV NCD 14/12 Q1016 RMK
  • 180120Z AUTO 18002KT 9999NDV NCD 14/13 Q1016 RMK
  • 180050Z AUTO VRB02KT 9999NDV FEW110 14/13 Q1017 RMK
  • 180020Z AUTO 00000KT 9999NDV SCT110 16/14 Q1017 RMK

Expired Forecast.



MET'MAP, your aeronautical weather chart ! - Copyright ORBIFLY December 2007 - Disclaimer

ORBIFLY MET'MAP TEAM :

Programming & Development : Alexandra Zaïnal
Original concept : Baudouin d'Aumeries
Technical & hardware support : Manuel Goepfert
Assistance : Marc-Olivier Méhu




SOURCES & CREDITS :

   NOAA